Terminal Aerodrome Forecast
Issued by NWS

Home | Current Version | Previous Version | Text Only | Print | Product List | Glossary On
Versions: 1 2 3 4 5 6 7 8 9 10 11 12
000
FTUS44 KEPZ 261700 RRA
TAFDMN
TAF
KDMN 261756Z 2618/2718 07011KT P6SM SCT140 BKN250
     FM270000 34006KT P6SM VCSH SCT060 BKN100 OVC200
      TEMPO 2706/2710 6SM -SHRA BKN040 OVC100
     FM271000 06007KT P6SM VCSH BKN050 BKN100 OVC200=

USA.gov is the U.S. government's official web portal to all federal, state and local government web resources and services.